• Join FlightAware (Why Join?)
  • Login
  • US Flag 
02:59AM EDT


 

Airport Tracker/Info


-or-


 

Live Flight TrackerFlight Track Log ✈ DAL1430 ✈ 22-Apr-2013 ✈ KATL - KBWI

Flight Track Log - Related Links

Times and Time Zones

All times are in EDT time to prevent confusion due to time zone crossing. See the DAL1430 flight status page for this flight to view local times or setup timezone preferences in your user account.

Time Position Orientation Groundspeed Altitude Reporting Facility
EDT Latitude Longitude Course Direction KTS MPH feet Rate Location/Type
02:30PM 33.6333 -84.3183 53° Northeast 460 529 4,300  Level Atlanta Center
02:31PM 33.6333 -84.2500 90° East 273 314 6,900 2,820 Climbing Atlanta TRACON
02:32PM 33.7267 -84.0166 54° Northeast  Level FlightAware Approximate
02:33PM 33.7945 -83.9039 54° Northeast  Level FlightAware Approximate
02:33PM 33.6689 -84.0514 78° East 307 353 12,900  Level Atlanta Center
02:34PM 33.8621 -83.7909 54° Northeast  Level FlightAware Approximate
02:34PM 33.7358 -83.9689 46° Northeast 314 361 14,500  Level Atlanta Center
02:35PM 33.9367 -83.6846 53° Northeast  Level FlightAware Approximate
02:35PM 33.8128 -83.8689 47° Northeast 376 433 16,600  Level Atlanta Center
02:36PM 34.0062 -83.5731 53° Northeast  Level FlightAware Approximate
02:36PM 33.8919 -83.7661 47° Northeast 411 473 18,600  Level Atlanta Center
02:37PM 33.9731 -83.6531 49° Northeast 430 495 20,800 2,160 Climbing Atlanta Center
02:38PM 34.0519 -83.5247 53° Northeast 443 510 23,000 1,860 Climbing Atlanta Center
02:39PM 34.1244 -83.4064 53° Northeast 449 517 24,600 1,500 Climbing Atlanta Center
02:40PM 34.2053 -83.2803 52° Northeast 472 543 26,100 1,560 Climbing Atlanta Center
02:41PM 34.2878 -83.1461 53° Northeast 485 558 27,800 1,500 Climbing Atlanta Center
02:42PM 34.3783 -83.0019 53° Northeast 490 564 29,100 1,200 Climbing Atlanta Center
02:43PM 34.4647 -82.8622 53° Northeast 497 572 30,300 1,500 Climbing Atlanta Center
02:44PM 34.5492 -82.7300 52° Northeast 504 580 32,200 1,260 Climbing Atlanta Center
02:45PM 34.6331 -82.5922 53° Northeast 504 580 32,900 780 Climbing Atlanta Center
02:46PM 34.7147 -82.4544 54° Northeast 504 580 33,800 1,020 Climbing Atlanta Center
02:47PM 34.8028 -82.3136 53° Northeast 510 587 35,000 600 Climbing Atlanta Center
02:48PM 34.8800 -82.1853 54° Northeast 510 587 35,000  Level Atlanta Center
02:49PM 34.9633 -82.0442 54° Northeast 511 588 35,000  Level Atlanta Center
02:50PM 35.0467 -81.9050 54° Northeast 511 588 35,000  Level Atlanta Center
02:51PM 35.1253 -81.7558 57° Northeast 511 588 35,000  Level Atlanta Center
02:52PM 35.2100 -81.5983 57° Northeast 511 588 35,000  Level Atlanta Center
02:53PM 35.2883 -81.4486 57° Northeast 511 588 35,000  Level Atlanta Center
02:54PM 35.3600 -81.2986 60° Northeast 511 588 35,000  Level Atlanta Center
02:55PM 35.4192 -81.1386 66° East 506 582 35,000  Level Atlanta Center
02:56PM 35.4925 -80.9856 59° Northeast 511 588 35,000  Level Atlanta Center
02:57PM 35.5744 -80.8394 55° Northeast 516 594 35,000  Level Atlanta Center
02:58PM 35.6558 -80.6931 56° Northeast 523 602 35,000  Level Atlanta Center
02:59PM 35.7372 -80.5439 56° Northeast 528 608 35,000  Level Atlanta Center
03:00PM 35.8164 -80.3947 57° Northeast 523 602 35,000  Level Atlanta Center
03:01PM 35.8953 -80.2450 57° Northeast 523 602 35,000  Level Atlanta Center
03:04PM 36.0956 -79.8900 55° Northeast 517 595 35,000  Level Washington Center
03:05PM 36.1803 -79.7403 55° Northeast 530 610 35,000 -360 Level Washington Center
03:06PM 36.2556 -79.6078 55° Northeast 530 610 34,300 -540 Descending Washington Center
03:07PM 36.3508 -79.4425 54° Northeast 530 610 34,000 -180 Descending Washington Center
03:08PM 36.4328 -79.2889 56° Northeast 530 610 34,000 -120 Level Washington Center
03:09PM 36.5100 -79.1506 55° Northeast 530 610 33,800 -600 Descending Washington Center
03:10PM 36.6044 -78.9892 54° Northeast 530 610 32,800 -1,800 Descending Washington Center
03:11PM 36.6794 -78.8475 57° Northeast 530 610 30,300 -1,920 Descending Washington Center
03:12PM 36.7647 -78.6928 55° Northeast 535 616 29,000 -900 Descending Washington Center
03:13PM 36.8567 -78.5225 56° Northeast 535 616 28,600 -480 Descending Washington Center
03:14PM 36.9417 -78.3700 55° Northeast 540 621 28,100 -600 Descending Washington Center
03:15PM 37.0267 -78.2092 56° Northeast 545 627 27,500 -780 Descending Washington Center
03:16PM 37.1114 -78.0531 56° Northeast 545 627 26,600 -780 Descending Washington Center
03:17PM 37.2061 -77.9050 51° Northeast 545 627 26,000 -360 Descending Washington Center
03:18PM 37.3350 -77.8147 29° Northeast 516 594 26,000  Level Washington Center
03:19PM 37.4681 -77.7322 26° Northeast 521 600 26,000 -120 Level Washington Center
03:20PM 37.5989 -77.6494 27° Northeast 521 600 25,800 -1,440 Descending Washington Center
03:21PM 37.7253 -77.5661 28° Northeast 514 592 23,200 -1,440 Descending Washington Center
03:22PM 37.8433 -77.4903 27° Northeast 495 570 23,000 -420 Descending Washington Center
03:23PM 37.9572 -77.4142 28° Northeast 472 543 22,400 -780 Descending Washington Center
03:24PM 38.0603 -77.3533 25° Northeast 457 526 21,500 -960 Descending Washington Center
03:25PM 38.1739 -77.2794 27° Northeast 452 520 20,500 -1,860 Descending Washington Center
03:26PM 38.2814 -77.2053 28° Northeast 447 514 17,900 -2,700 Descending Washington Center
03:27PM 38.3844 -77.1306 30° Northeast 435 501 15,100 -2,220 Descending Washington Center
03:28PM 38.4669 -77.0342 42° Northeast 418 481 13,500 -2,040 Descending Washington Center
03:29PM 38.5494 -76.9403 42° Northeast 401 461 11,100 -1,620 Descending Washington Center
03:30PM 38.6192 -76.8511 45° Northeast 371 427 10,300 -900 Descending Washington Center
03:31PM 38.6867 -76.7619 46° Northeast 330 380 9,400 -960 Descending Washington Center
03:32PM 38.7292 -76.6933 52° Northeast 295 339 8,500 -1,200 Descending Washington Center
03:33PM 38.7667 -76.6000 63° Northeast 277 319 7,100 -1,380 Descending Potomac TRACON
03:34PM 38.8167 -76.5333 46° Northeast 279 321 5,900 -1,080 Descending Potomac TRACON
03:35PM 38.8833 -76.5500 349° North 250 288 5,000 -960 Descending Potomac TRACON
03:36PM 38.9500 -76.5833 339° North 252 290 4,000 -540 Descending Potomac TRACON
03:37PM 39.0000 -76.6500 314° West 256 295 4,000 -180 Level Potomac TRACON
03:38PM 39.0333 -76.7167 303° West 242 278 3,700 -840 Descending Potomac TRACON
03:39PM 39.0833 -76.7667 322° Northwest 216 249 2,400 -900 Descending Potomac TRACON
03:39PM 39.1333 -76.7833 346° North 204 235 2,000 -480 Descending Potomac TRACON